createdAt,value
2018-11-04T00:00:19.194Z,82.91
2018-11-04T00:02:48.178Z,83.97
2018-11-04T00:05:16.856Z,83.54
2018-11-04T00:07:45.968Z,84.30
2018-11-04T00:10:14.309Z,83.70
2018-11-04T00:12:42.659Z,83.96
2018-11-04T00:15:11.716Z,83.49
2018-11-04T00:17:40.501Z,84.97
2018-11-04T00:20:11.043Z,84.81
2018-11-04T00:22:39.554Z,83.91
2018-11-04T00:25:09.128Z,84.24
2018-11-04T00:27:37.703Z,85.26
2018-11-04T00:30:07.696Z,85.52
2018-11-04T00:32:36.070Z,85.89
2018-11-04T00:35:04.654Z,84.81
2018-11-04T00:37:33.010Z,85.33
2018-11-04T00:40:01.350Z,85.47
2018-11-04T00:42:29.762Z,86.02
2018-11-04T00:44:58.105Z,85.33
2018-11-04T00:47:26.472Z,86.28
2018-11-04T00:49:54.828Z,86.05
2018-11-04T00:52:23.232Z,85.68
2018-11-04T00:54:51.600Z,86.16
2018-11-04T00:57:19.959Z,85.89
2018-11-04T00:59:48.316Z,85.55
2018-11-04T01:02:16.658Z,85.68
2018-11-04T01:04:45.020Z,86.34
2018-11-04T01:07:13.404Z,86.09
2018-11-04T01:09:41.759Z,87.37
2018-11-04T01:12:10.107Z,86.51
2018-11-04T01:14:38.445Z,86.47
2018-11-04T01:17:06.790Z,86.50
2018-11-04T01:19:35.137Z,86.71
2018-11-04T01:22:03.494Z,87.05
2018-11-04T01:24:32.534Z,86.32
2018-11-04T01:27:00.792Z,86.55
2018-11-04T01:29:29.131Z,86.95
2018-11-04T01:31:57.492Z,87.74
2018-11-04T01:34:25.838Z,87.03
2018-11-04T01:36:54.202Z,87.65
2018-11-04T01:39:22.549Z,87.96
2018-11-04T01:41:50.906Z,88.16
2018-11-04T01:44:19.268Z,86.87
2018-11-04T01:46:47.617Z,87.74
2018-11-04T01:49:15.948Z,87.33
2018-11-04T01:51:44.376Z,86.77
2018-11-04T01:54:12.717Z,87.25
2018-11-04T01:56:41.082Z,87.40
2018-11-04T01:59:09.644Z,86.98
2018-11-04T02:01:37.997Z,87.75
2018-11-04T02:04:06.777Z,88.28
2018-11-04T02:06:35.148Z,87.77
2018-11-04T02:09:03.553Z,87.80
2018-11-04T02:11:31.910Z,87.58
2018-11-04T02:14:00.248Z,87.38
2018-11-04T02:16:28.608Z,87.39
2018-11-04T02:18:56.961Z,88.24
2018-11-04T02:21:25.432Z,87.74
2018-11-04T02:23:53.797Z,87.45
2018-11-04T02:26:22.250Z,87.35
2018-11-04T02:28:50.605Z,88.19
2018-11-04T02:31:18.959Z,88.05
2018-11-04T02:33:47.302Z,88.04
2018-11-04T02:36:15.686Z,87.64
2018-11-04T02:38:44.040Z,88.02
2018-11-04T02:41:12.399Z,88.07
2018-11-04T02:43:40.750Z,88.71
2018-11-04T02:46:09.186Z,88.68
2018-11-04T02:48:37.960Z,87.88
2018-11-04T02:51:06.540Z,88.04
2018-11-04T02:53:34.879Z,88.41
2018-11-04T02:56:03.231Z,88.30
2018-11-04T02:58:31.591Z,88.27
2018-11-04T03:00:59.945Z,88.73
2018-11-04T03:03:28.265Z,88.45
2018-11-04T03:05:56.601Z,88.61
2018-11-04T03:08:24.979Z,89.05
2018-11-04T03:10:53.322Z,88.61
2018-11-04T03:13:21.733Z,89.22
2018-11-04T03:15:50.057Z,88.66
2018-11-04T03:18:18.425Z,89.30
2018-11-04T03:20:46.791Z,89.01
2018-11-04T03:23:15.128Z,88.70
2018-11-04T03:25:43.471Z,88.42
2018-11-04T03:28:11.912Z,89.25
2018-11-04T03:30:40.419Z,89.31
2018-11-04T03:33:09.621Z,89.49
2018-11-04T03:35:38.102Z,88.79
2018-11-04T03:38:06.988Z,89.52
2018-11-04T03:40:35.325Z,88.86
2018-11-04T03:43:03.666Z,89.04
2018-11-04T03:45:32.014Z,88.61
2018-11-04T03:48:00.360Z,89.57
2018-11-04T03:50:28.727Z,89.14
2018-11-04T03:53:02.335Z,89.31
2018-11-04T03:55:30.674Z,89.40
2018-11-04T03:57:59.020Z,89.04
2018-11-04T04:00:27.406Z,89.34
2018-11-04T04:02:55.778Z,89.18
2018-11-04T04:05:24.122Z,88.73
2018-11-04T04:07:52.465Z,89.10
2018-11-04T04:10:20.813Z,88.55
2018-11-04T04:12:49.140Z,89.63
2018-11-04T04:15:17.487Z,89.34
2018-11-04T04:17:45.849Z,89.65
2018-11-04T04:20:14.182Z,90.32
2018-11-04T04:22:42.516Z,89.99
2018-11-04T04:25:10.875Z,89.87
2018-11-04T04:27:39.360Z,90.00
2018-11-04T04:30:09.512Z,89.69
2018-11-04T04:32:37.846Z,89.55
2018-11-04T04:35:07.309Z,89.44
2018-11-04T04:37:35.673Z,89.68
2018-11-04T04:40:04.027Z,89.57
2018-11-04T04:42:32.372Z,90.14
2018-11-04T04:45:00.883Z,89.08
2018-11-04T04:47:29.230Z,89.27
2018-11-04T04:49:57.586Z,89.85
2018-11-04T04:52:25.921Z,89.42
2018-11-04T04:54:54.232Z,89.82
2018-11-04T04:57:22.577Z,90.18
2018-11-04T04:59:50.897Z,89.98
2018-11-04T05:02:19.230Z,89.62
2018-11-04T05:04:47.573Z,90.19
2018-11-04T05:07:15.922Z,90.20
2018-11-04T05:09:44.360Z,90.56
2018-11-04T05:12:12.714Z,90.27
2018-11-04T05:14:41.267Z,90.83
2018-11-04T05:17:09.621Z,90.25
2018-11-04T05:19:37.962Z,90.64
2018-11-04T05:22:07.008Z,90.11
2018-11-04T05:24:35.374Z,90.19
2018-11-04T05:27:03.914Z,91.02
2018-11-04T05:29:32.269Z,90.64
2018-11-04T05:32:00.624Z,90.90
2018-11-04T05:34:29.041Z,91.12
2018-11-04T05:36:57.384Z,90.51
2018-11-04T05:39:25.771Z,91.07
2018-11-04T05:41:54.145Z,91.13
2018-11-04T05:44:22.496Z,90.83
2018-11-04T05:46:50.861Z,90.92
2018-11-04T05:49:19.326Z,90.30
2018-11-04T05:51:47.687Z,91.22
2018-11-04T05:54:16.029Z,90.36
2018-11-04T05:56:44.380Z,90.40
2018-11-04T05:59:12.717Z,90.52
2018-11-04T06:01:41.082Z,90.76
2018-11-04T06:04:10.014Z,90.72
2018-11-04T06:06:38.482Z,90.79
2018-11-04T06:09:08.305Z,91.13
2018-11-04T06:11:36.656Z,90.97
2018-11-04T06:14:05.269Z,90.89
2018-11-04T06:16:33.684Z,91.14
2018-11-04T06:19:02.018Z,91.47
2018-11-04T06:21:30.540Z,91.16
2018-11-04T06:23:59.051Z,91.04
2018-11-04T06:26:27.406Z,90.73
2018-11-04T06:28:55.749Z,91.28
2018-11-04T06:31:24.239Z,91.00
2018-11-04T06:33:53.058Z,91.67
2018-11-04T06:36:21.664Z,91.37
2018-11-04T06:38:50.245Z,91.40
2018-11-04T06:41:18.836Z,91.60
2018-11-04T06:43:47.046Z,91.97
2018-11-04T06:46:15.411Z,90.81
2018-11-04T06:48:43.778Z,91.44
2018-11-04T06:51:12.279Z,91.73
2018-11-04T06:53:40.630Z,91.66
2018-11-04T06:56:08.977Z,91.47
2018-11-04T06:58:37.316Z,91.48
2018-11-04T07:01:05.651Z,91.85
2018-11-04T07:03:33.985Z,91.43
2018-11-04T07:06:02.333Z,91.40
2018-11-04T07:08:30.669Z,91.18
2018-11-04T07:10:59.034Z,91.49
2018-11-04T07:13:27.366Z,91.37
2018-11-04T07:15:55.705Z,91.41
2018-11-04T07:18:24.055Z,91.03
2018-11-04T07:20:52.391Z,91.59
2018-11-04T07:23:21.309Z,91.56
2018-11-04T07:25:49.711Z,91.31
2018-11-04T07:28:18.005Z,91.36
2018-11-04T07:30:46.357Z,91.29
2018-11-04T07:33:14.846Z,91.33
2018-11-04T07:35:43.184Z,91.31
2018-11-04T07:38:11.534Z,90.99
2018-11-04T07:40:39.861Z,91.54
2018-11-04T07:43:08.196Z,91.40
2018-11-04T07:45:36.557Z,91.65
2018-11-04T07:48:05.248Z,91.61
2018-11-04T07:50:33.644Z,92.04
2018-11-04T07:53:01.939Z,92.07
2018-11-04T07:55:30.293Z,91.36
2018-11-04T07:57:58.634Z,91.92
2018-11-04T08:00:26.972Z,91.68
2018-11-04T08:02:55.322Z,91.76
2018-11-04T08:05:23.667Z,91.73
2018-11-04T08:07:52.004Z,91.68
2018-11-04T08:10:20.781Z,91.35
2018-11-04T08:12:49.177Z,91.12
2018-11-04T08:15:17.518Z,91.56
2018-11-04T08:17:45.857Z,91.34
2018-11-04T08:20:14.190Z,91.43
2018-11-04T08:22:42.527Z,91.28
2018-11-04T08:25:10.909Z,91.38
2018-11-04T08:27:39.292Z,91.85
2018-11-04T08:30:08.543Z,91.95
2018-11-04T08:32:36.982Z,91.64
2018-11-04T08:35:05.895Z,91.37
2018-11-04T08:37:34.396Z,92.44
2018-11-04T08:40:03.218Z,91.77
2018-11-04T08:42:31.787Z,91.62
2018-11-04T08:45:00.137Z,92.33
2018-11-04T08:47:28.609Z,92.26
2018-11-04T08:49:56.986Z,92.14
2018-11-04T08:52:25.391Z,92.01
2018-11-04T08:54:53.741Z,91.94
2018-11-04T08:57:22.110Z,92.47
2018-11-04T08:59:50.497Z,92.08
2018-11-04T09:02:18.837Z,92.28
2018-11-04T09:04:47.161Z,92.17
2018-11-04T09:07:15.501Z,92.06
2018-11-04T09:09:43.887Z,92.10
2018-11-04T09:12:12.261Z,91.96
2018-11-04T09:14:40.614Z,91.93
2018-11-04T09:17:09.385Z,92.81
2018-11-04T09:19:37.737Z,92.16
2018-11-04T09:22:06.598Z,91.77
2018-11-04T09:24:34.741Z,91.61
2018-11-04T09:27:03.137Z,91.92
2018-11-04T09:29:31.585Z,92.07
2018-11-04T09:31:59.940Z,91.60
2018-11-04T09:34:28.324Z,91.80
2018-11-04T09:36:56.698Z,91.75
2018-11-04T09:39:25.043Z,91.71
2018-11-04T09:41:53.401Z,91.74
2018-11-04T09:44:21.764Z,91.43
2018-11-04T09:46:50.119Z,91.92
2018-11-04T09:49:18.468Z,91.61
2018-11-04T09:51:46.974Z,91.10
2018-11-04T09:54:15.359Z,91.32
2018-11-04T09:56:43.742Z,90.91
2018-11-04T09:59:12.081Z,90.92
2018-11-04T10:01:40.436Z,91.03
2018-11-04T10:04:08.809Z,90.70
2018-11-04T10:06:37.156Z,90.83
2018-11-04T10:09:07.865Z,90.98
2018-11-04T10:11:36.741Z,90.80
2018-11-04T10:14:05.152Z,90.78
2018-11-04T10:16:33.500Z,90.47
2018-11-04T10:19:02.025Z,90.55
2018-11-04T10:21:30.255Z,90.34
2018-11-04T10:23:58.638Z,90.71
2018-11-04T10:26:27.015Z,90.53
2018-11-04T10:28:55.374Z,90.22
2018-11-04T10:31:23.746Z,90.37
2018-11-04T10:33:52.133Z,89.74
2018-11-04T10:36:20.499Z,90.04
2018-11-04T10:38:48.881Z,90.16
2018-11-04T10:41:17.462Z,89.97
2018-11-04T10:43:45.836Z,89.66
2018-11-04T10:46:14.257Z,89.78
2018-11-04T10:48:42.609Z,89.82
2018-11-04T10:51:11.151Z,89.96
2018-11-04T10:53:39.494Z,90.06
2018-11-04T10:56:08.048Z,89.42
2018-11-04T10:58:36.426Z,89.42
2018-11-04T11:01:07.673Z,89.40
2018-11-04T11:03:36.647Z,89.17
2018-11-04T11:06:04.977Z,89.56
2018-11-04T11:08:33.329Z,89.54
2018-11-04T11:11:01.799Z,89.76
2018-11-04T11:13:30.588Z,89.51
2018-11-04T11:15:59.076Z,89.45
2018-11-04T11:18:27.648Z,89.22
2018-11-04T11:20:56.349Z,89.30
2018-11-04T11:23:24.688Z,89.10
2018-11-04T11:25:53.010Z,89.69
2018-11-04T11:28:21.358Z,89.29
2018-11-04T11:30:49.724Z,89.62
2018-11-04T11:33:18.084Z,89.31
2018-11-04T11:35:46.420Z,89.09
2018-11-04T11:38:14.755Z,89.16
2018-11-04T11:40:43.100Z,88.96
2018-11-04T11:43:11.453Z,89.12
2018-11-04T11:45:39.799Z,88.81
2018-11-04T11:48:08.615Z,88.80
2018-11-04T11:50:37.136Z,88.75
2018-11-04T11:53:05.916Z,89.15
2018-11-04T11:55:34.378Z,88.90
2018-11-04T11:58:02.737Z,88.85
2018-11-04T12:00:31.084Z,88.67
2018-11-04T12:02:59.426Z,88.68
2018-11-04T12:05:27.811Z,88.96
2018-11-04T12:07:56.159Z,89.04
2018-11-04T12:10:24.602Z,88.83
2018-11-04T12:12:52.954Z,88.99
2018-11-04T12:15:21.311Z,88.63
2018-11-04T12:17:49.759Z,88.26
2018-11-04T12:20:18.046Z,88.35
2018-11-04T12:22:46.607Z,88.46
2018-11-04T12:25:14.941Z,88.49
2018-11-04T12:27:43.464Z,88.67
2018-11-04T12:30:14.428Z,88.45
2018-11-04T12:32:42.785Z,88.23
2018-11-04T12:35:12.529Z,88.52
2018-11-04T12:37:41.257Z,88.44
2018-11-04T12:40:11.125Z,88.42
2018-11-04T12:42:39.459Z,88.35
2018-11-04T12:45:09.317Z,88.16
2018-11-04T12:47:37.826Z,88.29
2018-11-04T12:50:07.595Z,88.07
2018-11-04T12:52:35.946Z,87.96
2018-11-04T12:55:04.632Z,88.01
2018-11-04T12:57:32.990Z,88.24
2018-11-04T13:00:01.346Z,88.28
2018-11-04T13:02:29.716Z,88.09
2018-11-04T13:04:58.061Z,88.27
2018-11-04T13:07:26.399Z,88.35
2018-11-04T13:09:54.749Z,88.15
2018-11-04T13:12:23.097Z,88.56
2018-11-04T13:14:51.445Z,88.34
2018-11-04T13:17:19.805Z,88.19
2018-11-04T13:19:48.165Z,88.21
2018-11-04T13:22:16.512Z,88.55
2018-11-04T13:24:44.866Z,88.26
2018-11-04T13:27:13.238Z,88.17
2018-11-04T13:29:41.604Z,88.67
2018-11-04T13:32:10.031Z,88.80
2018-11-04T13:34:38.378Z,88.50
2018-11-04T13:37:07.186Z,88.61
2018-11-04T13:39:35.532Z,88.29
2018-11-04T13:42:03.935Z,88.52
2018-11-04T13:44:32.290Z,88.88
2018-11-04T13:47:00.639Z,89.07
2018-11-04T13:49:29.135Z,88.71
2018-11-04T13:51:57.369Z,88.70
2018-11-04T13:54:25.750Z,89.18
2018-11-04T13:56:54.113Z,88.66
2018-11-04T13:59:22.465Z,89.00
2018-11-04T14:01:50.807Z,89.41
2018-11-04T14:04:19.163Z,89.20
2018-11-04T14:06:47.543Z,89.24
2018-11-04T14:09:15.894Z,89.21
2018-11-04T14:11:44.267Z,88.84
2018-11-04T14:14:12.606Z,88.86
2018-11-04T14:16:40.959Z,88.92
2018-11-04T14:19:09.338Z,89.02
2018-11-04T14:21:37.690Z,89.46
2018-11-04T14:24:06.097Z,89.11
2018-11-04T14:26:34.431Z,89.16
2018-11-04T14:29:02.777Z,88.90
2018-11-04T14:31:31.132Z,89.85
2018-11-04T14:33:59.475Z,89.77
2018-11-04T14:36:27.854Z,89.44
2018-11-04T14:38:56.236Z,89.84
2018-11-04T14:41:24.591Z,89.23
2018-11-04T14:43:53.029Z,89.50
2018-11-04T14:46:21.425Z,89.66
2018-11-04T14:48:49.813Z,90.45
2018-11-04T14:51:18.467Z,90.34
2018-11-04T14:53:46.836Z,90.11
2018-11-04T14:56:15.187Z,89.91
2018-11-04T14:58:43.540Z,90.13
2018-11-04T15:01:12.019Z,89.83
2018-11-04T15:03:40.328Z,90.07
2018-11-04T15:06:08.672Z,89.97
2018-11-04T15:08:37.098Z,90.53
2018-11-04T15:11:05.474Z,90.21
2018-11-04T15:13:33.887Z,90.88
2018-11-04T15:16:02.396Z,90.84
2018-11-04T15:18:30.912Z,91.37
2018-11-04T15:20:59.241Z,91.29
2018-11-04T15:23:27.814Z,91.32
2018-11-04T15:25:56.158Z,91.49
2018-11-04T15:28:24.564Z,91.66
2018-11-04T15:30:52.917Z,92.00
2018-11-04T15:33:21.285Z,91.78
2018-11-04T15:35:49.621Z,91.53
2018-11-04T15:38:17.980Z,92.29
2018-11-04T15:40:46.329Z,91.93
2018-11-04T15:43:14.684Z,91.61
2018-11-04T15:45:43.049Z,91.86
2018-11-04T15:48:11.400Z,91.59
2018-11-04T15:50:39.741Z,92.82
2018-11-04T15:53:08.101Z,92.80
2018-11-04T15:55:37.277Z,92.54
2018-11-04T15:58:05.990Z,92.48
2018-11-04T16:00:34.331Z,93.07
2018-11-04T16:03:02.795Z,93.42
2018-11-04T16:05:31.244Z,93.28
2018-11-04T16:07:59.590Z,93.09
2018-11-04T16:10:27.937Z,92.39
2018-11-04T16:12:56.290Z,93.01
2018-11-04T16:15:24.661Z,92.91
2018-11-04T16:17:53.020Z,92.96
2018-11-04T16:20:21.400Z,93.74
2018-11-04T16:22:50.018Z,93.28
2018-11-04T16:25:18.414Z,93.97
2018-11-04T16:27:46.765Z,93.70
2018-11-04T16:30:15.938Z,93.70
2018-11-04T16:32:44.403Z,94.12
2018-11-04T16:35:13.711Z,94.02
2018-11-04T16:37:42.978Z,93.98
2018-11-04T16:40:11.500Z,93.99
2018-11-04T16:42:40.272Z,94.42
2018-11-04T16:45:13.372Z,94.41
2018-11-04T16:47:41.825Z,94.40
2018-11-04T16:50:11.228Z,94.35
2018-11-04T16:52:39.544Z,94.19
2018-11-04T16:55:08.563Z,94.97
2018-11-04T16:57:36.917Z,94.88
2018-11-04T17:00:06.059Z,94.70
2018-11-04T17:02:34.419Z,95.44
2018-11-04T17:05:02.889Z,94.69
2018-11-04T17:07:31.171Z,95.10
2018-11-04T17:09:59.527Z,94.99
2018-11-04T17:12:27.909Z,95.28
2018-11-04T17:14:56.283Z,94.94
2018-11-04T17:17:24.630Z,95.24
2018-11-04T17:19:53.017Z,94.90
2018-11-04T17:22:21.381Z,94.41
2018-11-04T17:24:49.991Z,94.89
2018-11-04T17:27:19.409Z,94.71
2018-11-04T17:29:47.976Z,95.23
2018-11-04T17:32:16.345Z,94.88
2018-11-04T17:34:44.859Z,95.19
2018-11-04T17:37:13.211Z,95.07
2018-11-04T17:39:41.571Z,94.89
2018-11-04T17:42:09.912Z,95.58
2018-11-04T17:44:38.297Z,95.25
2018-11-04T17:47:06.629Z,94.84
2018-11-04T17:49:34.985Z,95.34
2018-11-04T17:52:03.373Z,95.61
2018-11-04T17:54:31.743Z,95.50
2018-11-04T17:57:00.077Z,95.26
2018-11-04T17:59:28.436Z,95.45
2018-11-04T18:01:56.782Z,95.46
2018-11-04T18:04:25.103Z,95.20
2018-11-04T18:06:53.460Z,95.59
2018-11-04T18:09:21.821Z,95.52
2018-11-04T18:11:50.267Z,94.87
2018-11-04T18:14:18.642Z,95.56
2018-11-04T18:16:47.078Z,95.14
2018-11-04T18:19:15.444Z,95.10
2018-11-04T18:21:43.827Z,95.60
2018-11-04T18:24:12.202Z,94.84
2018-11-04T18:26:41.230Z,94.93
2018-11-04T18:29:09.603Z,95.12
2018-11-04T18:31:37.984Z,95.68
2018-11-04T18:34:06.528Z,95.49
2018-11-04T18:36:34.872Z,95.44
2018-11-04T18:39:04.061Z,95.04
2018-11-04T18:41:32.422Z,95.75
2018-11-04T18:44:01.055Z,95.51
2018-11-04T18:46:29.318Z,95.46
2018-11-04T18:48:58.104Z,96.28
2018-11-04T18:51:26.649Z,95.88
2018-11-04T18:53:55.068Z,95.83
2018-11-04T18:56:23.445Z,95.80
2018-11-04T18:58:52.281Z,96.04
2018-11-04T19:01:20.609Z,95.69
2018-11-04T19:03:48.969Z,96.03
2018-11-04T19:06:17.313Z,95.59
2018-11-04T19:08:46.568Z,96.12
2018-11-04T19:11:14.953Z,95.95
2018-11-04T19:13:43.328Z,96.07
2018-11-04T19:16:11.863Z,95.70
2018-11-04T19:18:40.289Z,95.82
2018-11-04T19:21:08.606Z,96.06
2018-11-04T19:23:36.944Z,95.91
2018-11-04T19:26:05.770Z,95.39
2018-11-04T19:28:34.100Z,95.48
2018-11-04T19:31:02.479Z,95.93
2018-11-04T19:33:30.907Z,95.85
2018-11-04T19:35:59.278Z,96.09
2018-11-04T19:38:27.629Z,96.29
2018-11-04T19:40:55.974Z,95.68
2018-11-04T19:43:24.392Z,96.00
2018-11-04T19:45:52.756Z,96.40
2018-11-04T19:48:21.328Z,96.84
2018-11-04T19:50:49.681Z,96.75
2018-11-04T19:53:18.051Z,96.85
2018-11-04T19:55:46.375Z,96.78
2018-11-04T19:58:14.755Z,96.67
2018-11-04T20:00:43.147Z,96.97
2018-11-04T20:03:11.516Z,97.22
2018-11-04T20:05:39.878Z,96.96
2018-11-04T20:08:08.248Z,96.54
2018-11-04T20:10:36.680Z,96.51
2018-11-04T20:13:10.500Z,97.03
2018-11-04T20:15:38.828Z,97.08
2018-11-04T20:18:12.695Z,96.93
2018-11-04T20:20:41.030Z,96.95
2018-11-04T20:23:09.376Z,97.77
2018-11-04T20:25:43.125Z,97.67
2018-11-04T20:28:11.440Z,97.22
2018-11-04T20:30:39.772Z,97.24
2018-11-04T20:33:09.855Z,97.08
2018-11-04T20:35:38.242Z,97.33
2018-11-04T20:38:06.816Z,97.33
2018-11-04T20:40:40.560Z,97.27
2018-11-04T20:43:08.939Z,97.25
2018-11-04T20:45:37.289Z,97.07
2018-11-04T20:50:37.494Z,97.54
2018-11-04T20:53:05.904Z,97.57
2018-11-04T20:55:40.212Z,97.07
2018-11-04T20:58:08.725Z,96.93
2018-11-04T21:00:36.997Z,97.03
2018-11-04T21:03:05.401Z,97.20
2018-11-04T21:05:33.769Z,97.17
2018-11-04T21:08:02.169Z,96.58
2018-11-04T21:10:30.511Z,96.76
2018-11-04T21:12:58.942Z,96.47
2018-11-04T21:15:27.289Z,96.74
2018-11-04T21:17:55.663Z,96.54
2018-11-04T21:20:24.027Z,96.42
2018-11-04T21:22:53.240Z,96.44
2018-11-04T21:25:21.631Z,96.58
2018-11-04T21:27:50.092Z,96.69
2018-11-04T21:30:18.374Z,96.84
2018-11-04T21:32:46.692Z,96.61
2018-11-04T21:35:15.041Z,96.40
2018-11-04T21:37:43.424Z,95.99
2018-11-04T21:40:11.814Z,96.35
2018-11-04T21:42:40.411Z,96.32
2018-11-04T21:45:10.464Z,96.77
2018-11-04T21:47:38.881Z,96.09
2018-11-04T21:50:08.200Z,96.30
2018-11-04T21:52:36.603Z,96.42
2018-11-04T21:55:05.497Z,96.84
2018-11-04T21:57:33.939Z,96.50
2018-11-04T22:00:02.208Z,96.35
2018-11-04T22:02:30.660Z,95.90
2018-11-04T22:04:58.963Z,96.46
2018-11-04T22:07:27.334Z,96.33
2018-11-04T22:09:55.686Z,96.89
2018-11-04T22:12:24.037Z,96.51
2018-11-04T22:14:52.416Z,96.43
2018-11-04T22:17:20.795Z,96.69
2018-11-04T22:19:49.178Z,97.04
2018-11-04T22:22:17.604Z,97.05
2018-11-04T22:24:45.910Z,96.64
2018-11-04T22:27:14.419Z,96.50
2018-11-04T22:29:42.796Z,96.85
2018-11-04T22:32:11.140Z,96.66
2018-11-04T22:34:39.509Z,96.38
2018-11-04T22:37:07.855Z,96.50
2018-11-04T22:39:36.237Z,96.67
2018-11-04T22:42:04.614Z,96.90
2018-11-04T22:44:32.969Z,97.01
2018-11-04T22:47:01.327Z,97.19
2018-11-04T22:49:29.686Z,97.19
2018-11-04T22:51:58.111Z,97.44
2018-11-04T22:54:26.494Z,96.90
2018-11-04T22:56:54.828Z,97.43
2018-11-04T22:59:23.197Z,97.17
2018-11-04T23:01:51.571Z,96.85
2018-11-04T23:04:24.917Z,96.72
2018-11-04T23:06:53.265Z,96.86
2018-11-04T23:09:21.824Z,97.21
2018-11-04T23:11:50.182Z,96.76
2018-11-04T23:14:18.597Z,97.25
2018-11-04T23:16:46.941Z,97.11
2018-11-04T23:19:15.294Z,97.59
2018-11-04T23:21:43.637Z,97.33
2018-11-04T23:24:12.225Z,97.07
2018-11-04T23:26:40.590Z,96.94
2018-11-04T23:29:09.117Z,96.92
2018-11-04T23:31:37.459Z,97.46
2018-11-04T23:34:06.079Z,96.88
2018-11-04T23:36:34.428Z,96.68
2018-11-04T23:39:02.840Z,96.57
2018-11-04T23:41:31.170Z,96.69
2018-11-04T23:43:59.542Z,96.70
2018-11-04T23:46:27.901Z,96.74
2018-11-04T23:48:56.252Z,96.84
2018-11-04T23:51:24.595Z,97.17
2018-11-04T23:53:52.954Z,97.13
2018-11-04T23:56:21.314Z,97.15
2018-11-04T23:58:49.670Z,96.95
